Time;durP1;ratioP1;P1;durP2;ratioP2;P2;SDS_P1;SDS_P2;PMS_P1;PMS_P2;Temp;Humidity;BMP_temperature;BMP_pressure;BME280_temperature;BME280_humidity;BME280_pressure;Samples;Min_cycle;Max_cycle;Signal;HPM_P1;HPM_P2
2022/03/07 08:13:39;;;;;;;37.03;19.67;;;;;;;;;;5066619;28;20441;-63
2022/03/07 08:16:05;;;;;;;36.03;21.63;;;;;;;;;;5065370;28;20036;-64
2022/03/07 08:18:31;;;;;;;34.63;20.80;;;;;;;;;;5066622;28;20095;-64
2022/03/07 08:20:59;;;;;;;36.83;21.73;;;;;;;;;;5066411;28;20056;-67
2022/03/07 08:23:26;;;;;;;37.75;22.77;;;;;;;;;;5064538;28;20108;-66
2022/03/07 08:25:52;;;;;;;40.25;22.92;;;;;;;;;;5065336;28;20020;-63
2022/03/07 08:28:18;;;;;;;38.38;23.58;;;;;;;;;;5060803;28;20120;-65
2022/03/07 08:30:44;;;;;;;36.55;22.67;;;;;;;;;;5046399;28;20021;-62
2022/03/07 08:33:10;;;;;;;38.55;22.80;;;;;;;;;;5045240;28;20037;-68
2022/03/07 08:35:36;;;;;;;42.15;23.08;;;;;;;;;;5045214;28;20048;-66
2022/03/07 08:38:03;;;;;;;39.75;23.17;;;;;;;;;;5042474;28;20112;-67
2022/03/07 08:40:29;;;;;;;36.28;22.98;;;;;;;;;;5044912;28;20025;-66
2022/03/07 08:42:55;;;;;;;36.38;22.00;;;;;;;;;;5045871;28;20037;-66
2022/03/07 08:45:22;;;;;;;35.22;22.08;;;;;;;;;;5046229;28;20025;-69
2022/03/07 08:47:50;;;;;;;35.35;21.48;;;;;;;;;;5043467;28;20481;-70
2022/03/07 08:50:18;;;;;;;32.90;22.13;;;;;;;;;;5045695;28;20040;-62
2022/03/07 08:52:44;;;;;;;36.85;21.55;;;;;;;;;;5047040;28;20103;-63
2022/03/07 08:55:10;;;;;;;33.08;21.17;;;;;;;;;;5047428;28;20021;-62
2022/03/07 08:57:37;;;;;;;37.30;22.40;;;;;;;;;;5047359;28;20056;-69
2022/03/07 09:00:05;;;;;;;38.38;23.88;;;;;;;;;;5046373;28;20171;-62
2022/03/07 09:02:32;;;;;;;38.70;22.15;;;;;;;;;;5047523;28;20090;-63
2022/03/07 09:04:58;;;;;;;34.83;22.27;;;;;;;;;;5046827;28;20021;-67
2022/03/07 09:07:27;;;;;;;41.63;23.95;;;;;;;;;;5046907;28;20496;-64
2022/03/07 09:09:53;;;;;;;38.50;22.92;;;;;;;;;;5046518;28;20021;-65
2022/03/07 09:12:19;;;;;;;34.22;21.27;;;;;;;;;;5045513;28;20056;-65
2022/03/07 09:14:45;;;;;;;38.20;22.60;;;;;;;;;;5046189;28;20061;-65
2022/03/07 09:23:06;;;;;;;39.85;24.25;;;;;;;;;;5043297;28;20468;-66
2022/03/07 09:25:32;;;;;;;40.22;24.20;;;;;;;;;;5032057;28;20099;-67
2022/03/07 09:28:01;;;;;;;34.83;22.23;;;;;;;;;;5020122;28;20432;-68
2022/03/07 09:30:27;;;;;;;32.00;20.08;;;;;;;;;;5013580;28;20033;-67
2022/03/07 09:32:56;;;;;;;36.20;20.67;;;;;;;;;;5022385;28;20087;-64
2022/03/07 09:35:22;;;;;;;30.77;20.88;;;;;;;;;;5032788;28;20108;-64
2022/03/07 09:37:54;;;;;;;33.47;20.70;;;;;;;;;;5030234;28;20460;-69
2022/03/07 09:40:20;;;;;;;56.05;31.13;;;;;;;;;;5032778;28;20125;-64
2022/03/07 09:42:46;;;;;;;40.13;23.55;;;;;;;;;;5032164;28;20040;-64
2022/03/07 09:45:13;;;;;;;35.05;21.80;;;;;;;;;;5021458;28;20058;-66
2022/03/07 09:47:40;;;;;;;34.53;20.75;;;;;;;;;;5029422;28;20030;-65
2022/03/07 09:50:06;;;;;;;31.92;20.83;;;;;;;;;;5031019;28;20053;-65
2022/03/07 09:52:32;;;;;;;37.55;23.05;;;;;;;;;;5030143;28;20040;-68
2022/03/07 09:54:59;;;;;;;52.08;32.45;;;;;;;;;;5020484;28;20072;-66
2022/03/07 09:57:34;;;;;;;39.65;25.83;;;;;;;;;;5021643;28;20026;-65
2022/03/07 10:00:00;;;;;;;37.83;24.02;;;;;;;;;;5016086;28;20457;-67
2022/03/07 10:02:28;;;;;;;37.22;23.40;;;;;;;;;;5013658;28;20159;-65
2022/03/07 10:05:00;;;;;;;39.25;23.67;;;;;;;;;;5019930;28;20028;-65
2022/03/07 10:07:26;;;;;;;37.97;24.17;;;;;;;;;;5027422;28;20032;-63
2022/03/07 10:10:02;;;;;;;40.58;24.63;;;;;;;;;;5029428;28;20026;-63
2022/03/07 10:12:28;;;;;;;39.40;24.77;;;;;;;;;;5029175;28;20049;-66
2022/03/07 10:14:54;;;;;;;41.13;24.92;;;;;;;;;;5031292;28;20535;-65
2022/03/07 10:17:29;;;;;;;41.65;24.73;;;;;;;;;;5019431;28;20032;-71
2022/03/07 10:19:55;;;;;;;39.67;24.33;;;;;;;;;;5015972;28;20022;-66
2022/03/07 10:22:26;;;;;;;36.13;22.55;;;;;;;;;;5031862;28;20489;-70
2022/03/07 10:25:06;;;;;;;33.20;21.88;;;;;;;;;;5031505;28;20022;-64
2022/03/07 10:27:33;;;;;;;46.60;26.60;;;;;;;;;;5031491;28;20033;-64
2022/03/07 10:30:00;;;;;;;45.20;27.65;;;;;;;;;;5030987;28;20104;-65
2022/03/07 10:32:26;;;;;;;35.33;23.27;;;;;;;;;;5030996;28;20099;-66
2022/03/07 10:34:53;;;;;;;35.88;22.15;;;;;;;;;;5030129;28;20037;-65
2022/03/07 10:37:19;;;;;;;37.17;23.23;;;;;;;;;;5031447;28;20040;-67
2022/03/07 10:39:52;;;;;;;36.28;23.65;;;;;;;;;;5031835;28;20021;-64
2022/03/07 10:42:19;;;;;;;39.20;23.20;;;;;;;;;;5031533;28;20469;-64
2022/03/07 10:44:46;;;;;;;38.63;23.05;;;;;;;;;;5030657;28;20487;-64
2022/03/07 10:47:13;;;;;;;38.47;24.98;;;;;;;;;;5030326;28;20637;-64
2022/03/07 10:49:50;;;;;;;40.28;24.67;;;;;;;;;;5029607;28;20028;-65
2022/03/07 10:52:16;;;;;;;45.00;28.08;;;;;;;;;;5030251;28;20025;-64
2022/03/07 10:54:42;;;;;;;41.75;26.48;;;;;;;;;;5031633;28;20041;-66
2022/03/07 10:57:09;;;;;;;40.78;25.00;;;;;;;;;;5030188;28;20057;-66
2022/03/07 10:59:37;;;;;;;37.28;24.02;;;;;;;;;;5030281;28;20029;-66
2022/03/07 11:02:06;;;;;;;36.40;24.48;;;;;;;;;;5025270;28;20057;-67
2022/03/07 11:04:32;;;;;;;37.75;24.05;;;;;;;;;;5029010;28;20040;-64
2022/03/07 11:06:58;;;;;;;37.45;25.10;;;;;;;;;;5029493;28;20041;-67
2022/03/07 11:09:24;;;;;;;38.45;24.20;;;;;;;;;;5028631;28;20030;-65
2022/03/07 11:11:51;;;;;;;36.03;24.30;;;;;;;;;;5030156;28;20280;-66
2022/03/07 11:14:17;;;;;;;36.72;24.65;;;;;;;;;;5030654;28;20017;-65
2022/03/07 11:16:45;;;;;;;35.67;24.20;;;;;;;;;;5030512;28;20025;-65
2022/03/07 11:19:12;;;;;;;37.53;24.10;;;;;;;;;;5029827;28;20028;-66
2022/03/07 11:21:40;;;;;;;38.63;24.15;;;;;;;;;;5030634;28;20033;-66
2022/03/07 11:24:06;;;;;;;34.47;23.73;;;;;;;;;;5030852;28;20104;-65
2022/03/07 11:26:32;;;;;;;34.72;22.55;;;;;;;;;;5030781;28;20053;-67
2022/03/07 11:28:58;;;;;;;35.70;23.80;;;;;;;;;;5029008;28;20120;-66
2022/03/07 11:31:28;;;;;;;39.20;25.00;;;;;;;;;;5030543;28;20500;-65
2022/03/07 11:33:55;;;;;;;37.40;24.08;;;;;;;;;;5030036;28;20045;-65
2022/03/07 11:36:23;;;;;;;37.10;24.55;;;;;;;;;;5030104;28;20036;-65
2022/03/07 11:38:57;;;;;;;37.25;24.75;;;;;;;;;;5027065;28;20039;-66
2022/03/07 11:41:24;;;;;;;35.72;24.48;;;;;;;;;;5028298;28;20026;-65
2022/03/07 11:43:52;;;;;;;35.95;23.42;;;;;;;;;;5030094;28;20048;-66
2022/03/07 11:46:22;;;;;;;37.53;24.17;;;;;;;;;;5029685;28;20068;-67
2022/03/07 11:48:48;;;;;;;34.85;23.35;;;;;;;;;;5010559;28;20076;-66
2022/03/07 11:51:21;;;;;;;35.00;22.80;;;;;;;;;;5021231;28;20559;-65
2022/03/07 11:53:48;;;;;;;38.38;24.90;;;;;;;;;;5029952;28;20083;-67
2022/03/07 11:56:18;;;;;;;35.00;22.90;;;;;;;;;;5029934;28;20436;-67
2022/03/07 11:58:49;;;;;;;35.80;22.55;;;;;;;;;;5030226;28;20021;-69
2022/03/07 12:01:15;;;;;;;34.80;22.85;;;;;;;;;;5030012;28;20033;-67
2022/03/07 12:03:41;;;;;;;32.13;21.60;;;;;;;;;;5029567;28;20534;-66
2022/03/07 12:06:12;;;;;;;33.33;22.58;;;;;;;;;;5028374;28;20424;-63
2022/03/07 12:08:50;;;;;;;31.77;20.92;;;;;;;;;;5030291;28;20025;-65
2022/03/07 12:11:27;;;;;;;36.95;24.27;;;;;;;;;;5028942;28;20136;-64
2022/03/07 12:13:53;;;;;;;37.22;25.13;;;;;;;;;;5029092;28;20049;-64
2022/03/07 12:16:27;;;;;;;36.90;24.88;;;;;;;;;;5028446;28;20580;-64
2022/03/07 12:18:55;;;;;;;36.10;24.95;;;;;;;;;;5040700;28;20492;-65
2022/03/07 12:21:25;;;;;;;36.05;23.05;;;;;;;;;;5028017;28;20029;-65
2022/03/07 12:23:52;;;;;;;35.47;22.45;;;;;;;;;;5029176;28;20071;-64
2022/03/07 12:26:18;;;;;;;32.40;21.80;;;;;;;;;;5028748;28;20025;-65
2022/03/07 12:28:44;;;;;;;34.28;22.85;;;;;;;;;;5026018;28;20047;-65
2022/03/07 12:31:10;;;;;;;36.45;23.33;;;;;;;;;;5028376;28;20025;-68
2022/03/07 12:33:38;;;;;;;32.30;22.08;;;;;;;;;;5028668;28;20099;-69
2022/03/07 12:36:09;;;;;;;34.90;22.65;;;;;;;;;;5026414;28;20063;-64
2022/03/07 12:38:43;;;;;;;36.23;22.40;;;;;;;;;;5029239;28;20481;-67
2022/03/07 12:41:10;;;;;;;82.85;47.00;;;;;;;;;;5028949;28;20393;-65
2022/03/07 12:43:38;;;;;;;113.10;58.40;;;;;;;;;;5028451;28;20018;-63
2022/03/07 12:46:04;;;;;;;115.72;59.83;;;;;;;;;;5028886;28;20091;-65
2022/03/07 12:48:43;;;;;;;46.08;27.15;;;;;;;;;;5029094;28;20112;-64
2022/03/07 12:51:10;;;;;;;45.25;26.35;;;;;;;;;;5026835;28;20033;-64
2022/03/07 12:53:46;;;;;;;45.55;26.58;;;;;;;;;;5028351;28;20029;-63
2022/03/07 12:56:13;;;;;;;46.33;26.90;;;;;;;;;;5028591;28;20045;-65
2022/03/07 12:58:46;;;;;;;49.70;28.83;;;;;;;;;;5030542;28;20051;-64
2022/03/07 13:01:12;;;;;;;47.90;28.55;;;;;;;;;;5032946;28;20080;-62
2022/03/07 13:03:38;;;;;;;47.45;26.83;;;;;;;;;;5032315;28;20033;-63
2022/03/07 13:06:04;;;;;;;46.78;26.90;;;;;;;;;;5032574;28;20064;-62
2022/03/07 13:08:30;;;;;;;45.65;27.63;;;;;;;;;;5032487;28;20520;-63
2022/03/07 13:10:57;;;;;;;47.33;27.83;;;;;;;;;;5033122;28;20018;-65
2022/03/07 13:13:23;;;;;;;48.67;28.42;;;;;;;;;;5033083;28;20131;-65
2022/03/07 13:15:49;;;;;;;48.58;28.85;;;;;;;;;;5033664;28;20044;-65
2022/03/07 13:18:15;;;;;;;47.33;27.92;;;;;;;;;;5032779;28;20025;-63
2022/03/07 13:20:42;;;;;;;48.85;27.17;;;;;;;;;;5032735;28;20051;-64
2022/03/07 13:23:08;;;;;;;49.92;28.20;;;;;;;;;;5033139;28;20029;-64
2022/03/07 13:25:39;;;;;;;49.53;28.67;;;;;;;;;;5033381;28;20041;-64
2022/03/07 13:28:06;;;;;;;52.53;30.52;;;;;;;;;;5032273;28;20159;-64
2022/03/07 13:30:32;;;;;;;49.90;29.88;;;;;;;;;;5031531;28;20021;-63
2022/03/07 13:33:09;;;;;;;50.88;30.83;;;;;;;;;;5030157;28;20073;-64
2022/03/07 13:35:37;;;;;;;52.45;30.80;;;;;;;;;;5031928;28;20033;-64
2022/03/07 13:38:36;;;;;;;57.03;32.00;;;;;;;;;;5031466;28;20033;-70
2022/03/07 13:44:09;;;;;;;55.30;33.35;;;;;;;;;;5030254;28;20123;-65
2022/03/07 13:46:35;;;;;;;57.22;35.28;;;;;;;;;;5031863;28;20013;-64
2022/03/07 13:49:04;;;;;;;62.50;34.33;;;;;;;;;;5034082;28;20033;-64
2022/03/07 13:51:31;;;;;;;60.78;33.17;;;;;;;;;;5034994;28;20043;-67
2022/03/07 13:54:03;;;;;;;59.08;33.83;;;;;;;;;;5032872;28;20084;-65
2022/03/07 13:56:30;;;;;;;58.55;33.78;;;;;;;;;;5030333;28;20505;-73
2022/03/07 13:58:56;;;;;;;60.92;34.47;;;;;;;;;;5031346;28;20029;-67
2022/03/07 14:01:29;;;;;;;60.78;35.35;;;;;;;;;;5032797;28;20075;-75
2022/03/07 14:03:55;;;;;;;63.67;35.55;;;;;;;;;;5031576;28;20032;-68
2022/03/07 14:06:23;;;;;;;59.90;35.00;;;;;;;;;;5032115;28;20087;-66
2022/03/07 14:08:49;;;;;;;58.85;34.80;;;;;;;;;;5031347;28;20042;-64
2022/03/07 14:11:15;;;;;;;60.72;33.83;;;;;;;;;;5031439;28;20095;-66
2022/03/07 14:13:43;;;;;;;59.45;34.80;;;;;;;;;;5032284;28;20071;-70
2022/03/07 14:16:10;;;;;;;61.33;34.22;;;;;;;;;;5032355;28;20472;-65
2022/03/07 14:18:36;;;;;;;61.50;35.00;;;;;;;;;;5031523;28;20124;-63
2022/03/07 14:21:02;;;;;;;57.70;33.25;;;;;;;;;;5031798;28;20103;-64
2022/03/07 14:23:28;;;;;;;57.90;34.53;;;;;;;;;;5031494;28;20057;-65
2022/03/07 14:25:55;;;;;;;57.33;32.53;;;;;;;;;;5032151;28;20060;-65
2022/03/07 14:28:21;;;;;;;54.70;32.17;;;;;;;;;;5032500;28;20104;-72
2022/03/07 14:30:47;;;;;;;51.90;31.45;;;;;;;;;;5032183;28;20071;-74
2022/03/07 14:33:13;;;;;;;53.72;31.70;;;;;;;;;;5031017;28;20033;-71
2022/03/07 14:35:39;;;;;;;58.33;33.35;;;;;;;;;;5031625;28;20029;-65
2022/03/07 14:38:06;;;;;;;57.63;31.83;;;;;;;;;;5031458;28;20036;-67
2022/03/07 14:40:32;;;;;;;55.67;32.60;;;;;;;;;;5031716;28;20028;-66
2022/03/07 14:42:58;;;;;;;61.53;33.88;;;;;;;;;;5030927;28;20041;-68
2022/03/07 14:45:24;;;;;;;56.50;33.53;;;;;;;;;;5026268;28;20029;-73
2022/03/07 14:47:52;;;;;;;56.42;32.72;;;;;;;;;;5016125;28;20139;-74
2022/03/07 14:50:19;;;;;;;61.95;33.67;;;;;;;;;;5021188;28;20017;-64
2022/03/07 14:52:47;;;;;;;59.00;33.90;;;;;;;;;;5019987;28;20168;-68
2022/03/07 14:55:14;;;;;;;54.92;32.65;;;;;;;;;;5030096;28;20041;-70
2022/03/07 14:57:41;;;;;;;53.22;32.60;;;;;;;;;;5027531;28;20068;-66
2022/03/07 15:00:09;;;;;;;56.08;33.15;;;;;;;;;;5030112;28;20076;-65
2022/03/07 15:02:35;;;;;;;58.85;33.08;;;;;;;;;;5030765;28;20025;-64
2022/03/07 15:05:01;;;;;;;55.92;33.45;;;;;;;;;;5028851;28;20021;-67
2022/03/07 15:07:27;;;;;;;57.10;33.92;;;;;;;;;;5030251;28;20115;-66
2022/03/07 15:09:53;;;;;;;56.30;33.45;;;;;;;;;;5019513;28;20049;-65
2022/03/07 15:12:19;;;;;;;58.15;33.83;;;;;;;;;;5020461;28;20041;-69
2022/03/07 15:14:50;;;;;;;57.65;31.88;;;;;;;;;;5027131;28;20024;-65
2022/03/07 15:17:19;;;;;;;58.38;34.03;;;;;;;;;;5030697;28;20108;-65
2022/03/07 15:19:46;;;;;;;58.50;32.97;;;;;;;;;;5030695;28;20021;-65
2022/03/07 15:22:13;;;;;;;58.38;33.63;;;;;;;;;;5030286;28;20033;-69
2022/03/07 15:24:39;;;;;;;56.53;32.08;;;;;;;;;;5030966;28;20310;-66
2022/03/07 15:27:05;;;;;;;56.13;32.15;;;;;;;;;;5031352;28;20029;-70
2022/03/07 15:29:31;;;;;;;53.40;30.48;;;;;;;;;;5030754;28;20021;-65
2022/03/07 15:31:57;;;;;;;55.45;30.75;;;;;;;;;;5030952;28;20236;-75
2022/03/07 15:34:23;;;;;;;52.80;30.25;;;;;;;;;;5030877;28;20485;-67
2022/03/07 15:36:49;;;;;;;50.40;29.52;;;;;;;;;;5030602;28;20068;-67
2022/03/07 15:39:17;;;;;;;51.05;29.75;;;;;;;;;;5030704;28;20026;-69
2022/03/07 15:41:43;;;;;;;54.05;31.08;;;;;;;;;;5030375;28;20042;-66
2022/03/07 15:44:11;;;;;;;52.85;30.00;;;;;;;;;;5029746;28;20044;-64
2022/03/07 15:46:38;;;;;;;50.67;29.50;;;;;;;;;;5030848;28;20045;-66
2022/03/07 15:49:04;;;;;;;54.38;31.50;;;;;;;;;;5041133;28;20413;-68
2022/03/07 15:51:31;;;;;;;56.03;31.90;;;;;;;;;;5035107;28;20025;-63
2022/03/07 15:53:57;;;;;;;55.22;32.55;;;;;;;;;;5046775;28;20425;-63
2022/03/07 15:56:29;;;;;;;54.65;31.55;;;;;;;;;;5035507;28;20029;-67
2022/03/07 15:58:55;;;;;;;57.97;32.92;;;;;;;;;;5040282;28;20025;-62
2022/03/07 16:01:22;;;;;;;58.33;34.50;;;;;;;;;;5043136;28;20052;-63
2022/03/07 16:03:48;;;;;;;57.13;32.60;;;;;;;;;;5033470;28;20041;-64
2022/03/07 16:06:14;;;;;;;61.78;34.80;;;;;;;;;;5045795;28;20088;-64
2022/03/07 16:08:40;;;;;;;61.20;36.28;;;;;;;;;;5037738;28;20025;-63
2022/03/07 16:11:06;;;;;;;61.63;36.28;;;;;;;;;;5038416;28;20055;-65
2022/03/07 16:13:34;;;;;;;62.17;33.92;;;;;;;;;;5042012;28;20139;-65
2022/03/07 16:16:01;;;;;;;58.78;33.53;;;;;;;;;;5031608;28;20028;-63
2022/03/07 16:18:27;;;;;;;59.80;33.55;;;;;;;;;;5033462;28;20030;-64
2022/03/07 16:20:53;;;;;;;57.25;33.30;;;;;;;;;;5039426;28;20442;-63
2022/03/07 16:23:22;;;;;;;60.22;33.58;;;;;;;;;;5034314;28;20037;-62
2022/03/07 16:25:49;;;;;;;56.88;32.13;;;;;;;;;;5046159;28;20053;-64
2022/03/07 16:28:16;;;;;;;55.95;33.00;;;;;;;;;;5033613;28;20021;-63
2022/03/07 16:30:45;;;;;;;53.40;32.53;;;;;;;;;;5041723;28;20032;-63
2022/03/07 16:33:11;;;;;;;57.17;33.28;;;;;;;;;;5041747;28;20065;-63
2022/03/07 16:35:37;;;;;;;61.78;33.05;;;;;;;;;;5038221;28;20032;-64
2022/03/07 16:38:03;;;;;;;60.25;33.72;;;;;;;;;;5049675;28;20069;-63
2022/03/07 16:40:29;;;;;;;56.15;32.50;;;;;;;;;;5039618;28;20033;-65
2022/03/07 16:42:56;;;;;;;54.30;32.55;;;;;;;;;;5042180;28;20485;-63
2022/03/07 16:45:22;;;;;;;57.45;33.05;;;;;;;;;;5036095;28;20108;-65
2022/03/07 16:47:48;;;;;;;62.20;32.53;;;;;;;;;;5040039;28;20052;-64
2022/03/07 16:50:16;;;;;;;65.68;34.83;;;;;;;;;;5047237;28;20021;-64
2022/03/07 16:52:43;;;;;;;53.00;29.67;;;;;;;;;;5044208;28;20045;-64
2022/03/07 16:55:10;;;;;;;59.28;33.97;;;;;;;;;;5045074;28;20543;-65
2022/03/07 16:57:37;;;;;;;61.88;35.53;;;;;;;;;;5037875;28;20029;-64
2022/03/07 17:00:04;;;;;;;69.05;35.88;;;;;;;;;;5048446;28;20059;-64
2022/03/07 17:02:30;;;;;;;117.28;51.05;;;;;;;;;;5045563;28;20420;-72
2022/03/07 17:04:56;;;;;;;69.43;36.95;;;;;;;;;;5043127;28;20092;-64
2022/03/07 17:07:22;;;;;;;71.40;37.75;;;;;;;;;;5039800;28;20033;-65
2022/03/07 17:09:48;;;;;;;86.15;42.17;;;;;;;;;;5033498;28;20527;-63
2022/03/07 17:12:14;;;;;;;77.25;40.70;;;;;;;;;;5032910;28;20045;-63
2022/03/07 17:14:46;;;;;;;72.45;39.40;;;;;;;;;;5033602;28;20029;-64
2022/03/07 17:17:12;;;;;;;63.35;35.70;;;;;;;;;;5033604;28;20033;-68
2022/03/07 17:19:38;;;;;;;63.08;35.33;;;;;;;;;;5033446;28;20060;-64
2022/03/07 17:22:04;;;;;;;57.67;32.22;;;;;;;;;;5033347;28;20029;-65
2022/03/07 17:24:30;;;;;;;55.50;32.50;;;;;;;;;;5033357;28;20034;-63
2022/03/07 17:26:56;;;;;;;52.78;29.40;;;;;;;;;;5032890;28;20021;-66
2022/03/07 17:29:22;;;;;;;57.00;29.73;;;;;;;;;;5033035;28;20017;-64
2022/03/07 17:31:49;;;;;;;48.83;26.40;;;;;;;;;;5032535;28;20033;-62
2022/03/07 17:34:15;;;;;;;57.10;27.65;;;;;;;;;;5032562;28;20117;-62
2022/03/07 17:36:41;;;;;;;46.45;24.02;;;;;;;;;;5032682;28;20033;-64
2022/03/07 17:39:07;;;;;;;48.63;24.58;;;;;;;;;;5032521;28;20025;-64
2022/03/07 17:41:33;;;;;;;49.40;26.35;;;;;;;;;;5032519;28;20564;-64
2022/03/07 17:43:59;;;;;;;75.18;36.70;;;;;;;;;;5032303;28;20464;-64
2022/03/07 17:46:25;;;;;;;59.00;31.15;;;;;;;;;;5032788;28;20480;-64
2022/03/07 17:48:52;;;;;;;50.75;26.48;;;;;;;;;;5032521;28;20096;-66
2022/03/07 17:51:18;;;;;;;48.78;27.42;;;;;;;;;;5030950;28;20025;-64
2022/03/07 17:53:44;;;;;;;41.22;21.67;;;;;;;;;;5031501;28;20029;-64
2022/03/07 17:56:11;;;;;;;42.90;22.13;;;;;;;;;;5031560;28;20052;-67
2022/03/07 17:58:37;;;;;;;45.40;23.13;;;;;;;;;;5054087;28;20523;-65
2022/03/07 18:01:03;;;;;;;59.50;31.30;;;;;;;;;;5022041;28;20079;-63
2022/03/07 18:03:29;;;;;;;40.10;21.33;;;;;;;;;;5030937;28;20057;-63
2022/03/07 18:05:56;;;;;;;43.72;21.88;;;;;;;;;;5020128;28;20389;-64
2022/03/07 18:08:22;;;;;;;53.65;26.58;;;;;;;;;;5030603;28;20017;-62
2022/03/07 18:10:49;;;;;;;52.13;26.35;;;;;;;;;;5031208;28;20119;-63
2022/03/07 18:13:15;;;;;;;57.83;28.83;;;;;;;;;;5030296;28;20136;-65
2022/03/07 18:15:41;;;;;;;50.58;27.80;;;;;;;;;;5021248;28;20571;-63
2022/03/07 18:18:07;;;;;;;47.58;25.52;;;;;;;;;;5029944;28;20037;-64
2022/03/07 18:20:34;;;;;;;37.95;19.40;;;;;;;;;;5031072;28;20104;-64
2022/03/07 18:23:00;;;;;;;46.83;24.50;;;;;;;;;;5025960;28;20416;-65
2022/03/07 18:25:26;;;;;;;42.65;22.50;;;;;;;;;;5026400;28;20036;-64
2022/03/07 18:27:52;;;;;;;46.47;24.48;;;;;;;;;;5030022;28;20029;-65
2022/03/07 18:30:18;;;;;;;49.70;25.45;;;;;;;;;;5030711;28;20022;-64
2022/03/07 18:32:44;;;;;;;44.97;23.95;;;;;;;;;;5030732;28;20077;-67
2022/03/07 18:35:11;;;;;;;39.80;19.38;;;;;;;;;;5030538;28;20033;-64
2022/03/07 18:37:37;;;;;;;53.90;28.33;;;;;;;;;;5030136;28;20030;-65
2022/03/07 18:40:05;;;;;;;47.08;24.02;;;;;;;;;;5030429;28;20049;-65
2022/03/07 18:42:31;;;;;;;70.15;34.35;;;;;;;;;;5026408;28;20180;-64
2022/03/07 18:44:58;;;;;;;51.70;26.75;;;;;;;;;;5031353;28;20084;-64
2022/03/07 18:47:24;;;;;;;63.35;30.20;;;;;;;;;;5027978;28;20037;-65
2022/03/07 18:49:51;;;;;;;80.45;37.03;;;;;;;;;;5016836;28;20038;-63
2022/03/07 18:52:18;;;;;;;67.88;31.17;;;;;;;;;;5011682;28;20092;-63
2022/03/07 18:54:44;;;;;;;62.15;32.00;;;;;;;;;;5011689;28;20022;-64
2022/03/07 18:57:10;;;;;;;53.10;26.77;;;;;;;;;;5010751;28;20028;-63
2022/03/07 18:59:36;;;;;;;62.55;33.45;;;;;;;;;;5010413;28;20030;-64
2022/03/07 19:02:03;;;;;;;57.53;29.83;;;;;;;;;;5011440;28;20018;-63
2022/03/07 19:04:29;;;;;;;60.13;30.60;;;;;;;;;;5011635;28;20037;-64
2022/03/07 19:06:56;;;;;;;59.35;31.73;;;;;;;;;;5011072;28;20477;-63
2022/03/07 19:09:22;;;;;;;51.47;27.58;;;;;;;;;;5010924;28;20092;-64
2022/03/07 19:11:49;;;;;;;55.70;29.10;;;;;;;;;;5010878;28;20041;-63
2022/03/07 19:14:16;;;;;;;56.30;31.38;;;;;;;;;;5010796;28;20539;-64
2022/03/07 19:16:42;;;;;;;55.97;29.15;;;;;;;;;;5011148;28;20045;-65
2022/03/07 19:19:08;;;;;;;51.88;28.27;;;;;;;;;;5011241;28;20091;-65
2022/03/07 19:21:36;;;;;;;50.58;27.02;;;;;;;;;;5011141;28;20502;-64
2022/03/07 19:24:02;;;;;;;52.38;25.27;;;;;;;;;;5011414;28;20181;-64
2022/03/07 19:26:28;;;;;;;58.88;31.60;;;;;;;;;;5011123;28;20018;-63
2022/03/07 19:28:55;;;;;;;49.10;25.92;;;;;;;;;;5010642;28;20030;-63
2022/03/07 19:31:21;;;;;;;44.13;21.63;;;;;;;;;;5010742;28;20028;-64
2022/03/07 19:33:47;;;;;;;48.28;23.80;;;;;;;;;;5011168;28;20053;-65
2022/03/07 19:36:13;;;;;;;39.70;18.00;;;;;;;;;;5011087;28;20030;-66
2022/03/07 19:38:39;;;;;;;51.60;26.77;;;;;;;;;;5010650;28;20117;-65
2022/03/07 19:41:08;;;;;;;55.45;30.02;;;;;;;;;;5010357;28;20029;-64
2022/03/07 19:43:34;;;;;;;51.80;24.95;;;;;;;;;;5025464;28;20079;-64
2022/03/07 19:46:00;;;;;;;57.45;29.13;;;;;;;;;;5028517;28;20029;-64
2022/03/07 19:48:26;;;;;;;72.30;34.10;;;;;;;;;;5030299;28;20028;-64
2022/03/07 19:50:52;;;;;;;89.68;36.80;;;;;;;;;;5030262;28;20053;-64
2022/03/07 19:53:19;;;;;;;56.95;27.52;;;;;;;;;;5028966;28;20049;-63
2022/03/07 19:55:45;;;;;;;45.10;21.25;;;;;;;;;;5030335;28;20025;-64
2022/03/07 19:58:11;;;;;;;44.22;21.50;;;;;;;;;;5030292;28;20033;-64
2022/03/07 20:00:37;;;;;;;66.75;30.30;;;;;;;;;;5030252;28;20485;-63
2022/03/07 20:03:03;;;;;;;60.03;32.08;;;;;;;;;;5030146;28;20037;-63
2022/03/07 20:05:30;;;;;;;55.83;29.38;;;;;;;;;;5030402;28;20074;-63
2022/03/07 20:07:56;;;;;;;58.38;30.17;;;;;;;;;;5029305;28;20025;-63
2022/03/07 20:10:22;;;;;;;76.22;36.55;;;;;;;;;;5029542;28;20017;-63
2022/03/07 20:12:48;;;;;;;57.17;29.17;;;;;;;;;;5029717;28;20440;-65
2022/03/07 20:15:17;;;;;;;61.83;31.42;;;;;;;;;;5030244;28;20018;-62
2022/03/07 20:17:43;;;;;;;66.40;30.50;;;;;;;;;;5029778;28;20108;-63
2022/03/07 20:20:10;;;;;;;60.90;29.23;;;;;;;;;;5029715;28;20459;-62
2022/03/07 20:22:37;;;;;;;56.25;27.65;;;;;;;;;;5029923;28;20026;-64
2022/03/07 20:25:04;;;;;;;61.30;31.50;;;;;;;;;;5030104;28;20053;-64
2022/03/07 20:27:30;;;;;;;66.90;30.13;;;;;;;;;;5029005;28;20030;-65
2022/03/07 20:29:56;;;;;;;57.05;26.15;;;;;;;;;;5029387;28;20029;-64
2022/03/07 20:32:22;;;;;;;69.30;34.45;;;;;;;;;;5029557;28;20084;-65
2022/03/07 20:34:48;;;;;;;75.20;36.53;;;;;;;;;;5030119;28;20029;-62
2022/03/07 20:37:14;;;;;;;67.63;32.33;;;;;;;;;;5029862;28;20029;-63
2022/03/07 20:39:42;;;;;;;77.68;37.28;;;;;;;;;;5029319;28;20037;-63
2022/03/07 20:42:08;;;;;;;69.32;34.85;;;;;;;;;;5032341;28;20064;-63
2022/03/07 20:44:34;;;;;;;61.05;29.20;;;;;;;;;;5040494;28;20049;-62
2022/03/07 20:47:01;;;;;;;61.88;28.65;;;;;;;;;;5030074;28;20018;-63
2022/03/07 20:49:27;;;;;;;69.53;33.95;;;;;;;;;;5028007;28;20029;-63
2022/03/07 20:51:53;;;;;;;57.35;27.20;;;;;;;;;;5029103;28;20024;-63
2022/03/07 20:54:19;;;;;;;81.07;38.78;;;;;;;;;;5029662;28;20530;-64
2022/03/07 20:56:45;;;;;;;60.00;28.15;;;;;;;;;;5029801;28;20061;-63
2022/03/07 20:59:12;;;;;;;65.03;32.78;;;;;;;;;;5029602;28;20045;-63
2022/03/07 21:01:39;;;;;;;70.25;34.17;;;;;;;;;;5030047;28;20037;-63
2022/03/07 21:04:05;;;;;;;56.83;28.17;;;;;;;;;;5029929;28;20429;-63
2022/03/07 21:06:31;;;;;;;70.93;34.15;;;;;;;;;;5029575;28;20089;-63
2022/03/07 21:08:57;;;;;;;62.15;31.10;;;;;;;;;;5027764;28;20436;-66
2022/03/07 21:11:23;;;;;;;71.78;34.95;;;;;;;;;;5029333;28;20478;-62
2022/03/07 21:13:50;;;;;;;68.57;33.22;;;;;;;;;;5029106;28;20091;-62
2022/03/07 21:16:16;;;;;;;56.00;26.92;;;;;;;;;;5029340;28;20079;-62
2022/03/07 21:18:42;;;;;;;69.45;31.65;;;;;;;;;;5029604;28;20030;-64
2022/03/07 21:21:08;;;;;;;69.45;34.33;;;;;;;;;;5031110;28;20033;-63
2022/03/07 21:23:37;;;;;;;75.95;34.50;;;;;;;;;;5032912;28;20049;-63
2022/03/07 21:26:03;;;;;;;75.60;37.55;;;;;;;;;;5032846;28;20063;-62
2022/03/07 21:28:29;;;;;;;78.68;38.40;;;;;;;;;;5032799;28;20100;-63
2022/03/07 21:30:56;;;;;;;78.05;37.00;;;;;;;;;;5032890;28;20033;-62
2022/03/07 21:33:22;;;;;;;78.15;37.50;;;;;;;;;;5032686;28;20473;-64
2022/03/07 21:35:48;;;;;;;68.93;32.58;;;;;;;;;;5032963;28;20397;-62
2022/03/07 21:38:14;;;;;;;69.05;34.72;;;;;;;;;;5032626;28;20034;-63
2022/03/07 21:40:41;;;;;;;69.57;34.53;;;;;;;;;;5032614;28;20037;-63
2022/03/07 21:43:07;;;;;;;64.03;29.23;;;;;;;;;;5032661;28;20032;-61
2022/03/07 21:45:33;;;;;;;77.50;38.08;;;;;;;;;;5032813;28;20520;-63
2022/03/07 21:47:59;;;;;;;73.18;35.88;;;;;;;;;;5032105;28;20053;-63
2022/03/07 21:50:26;;;;;;;73.22;32.40;;;;;;;;;;5032379;28;20040;-63
2022/03/07 21:52:52;;;;;;;81.65;38.38;;;;;;;;;;5031977;28;20060;-63
2022/03/07 21:55:18;;;;;;;80.70;38.63;;;;;;;;;;5032523;28;20474;-63
2022/03/07 21:57:44;;;;;;;77.45;36.03;;;;;;;;;;5032232;28;20025;-63
2022/03/07 22:00:11;;;;;;;74.80;36.70;;;;;;;;;;5032220;28;20029;-62
2022/03/07 22:02:37;;;;;;;74.95;38.00;;;;;;;;;;5032319;28;20033;-63
2022/03/07 22:05:04;;;;;;;77.82;38.17;;;;;;;;;;5032459;28;20068;-64
2022/03/07 22:07:30;;;;;;;77.95;36.65;;;;;;;;;;5032241;28;20029;-62
2022/03/07 22:09:56;;;;;;;75.10;37.10;;;;;;;;;;5031796;28;20048;-62
2022/03/07 22:12:22;;;;;;;70.97;35.45;;;;;;;;;;5029947;28;20049;-63
2022/03/07 22:14:48;;;;;;;68.70;35.92;;;;;;;;;;5031519;28;20029;-62
2022/03/07 22:17:14;;;;;;;71.32;36.15;;;;;;;;;;5031763;28;20036;-63
2022/03/07 22:19:40;;;;;;;72.65;36.28;;;;;;;;;;5032210;28;20029;-63
2022/03/07 22:22:06;;;;;;;69.20;36.00;;;;;;;;;;5031932;28;20061;-63
2022/03/07 22:24:32;;;;;;;68.60;34.17;;;;;;;;;;5031318;28;20511;-63
2022/03/07 22:26:58;;;;;;;70.07;33.90;;;;;;;;;;5032008;28;20033;-62
2022/03/07 22:29:24;;;;;;;63.78;33.17;;;;;;;;;;5031365;28;20112;-62
2022/03/07 22:31:50;;;;;;;65.38;31.50;;;;;;;;;;5031525;28;20025;-63
2022/03/07 22:34:17;;;;;;;60.00;31.08;;;;;;;;;;5031860;28;20037;-63
2022/03/07 22:36:43;;;;;;;59.92;27.98;;;;;;;;;;5031106;28;20033;-62